Time;durP1;ratioP1;P1;durP2;ratioP2;P2;SDS_P1;SDS_P2;PMS_P1;PMS_P2;Temp;Humidity;BMP_temperature;BMP_pressure;BME280_temperature;BME280_humidity;BME280_pressure;Samples;Min_cycle;Max_cycle;Signal;HPM_P1;HPM_P2
2022/09/12 17:37:13;;;;;;;3.08;0.75;;;;;;;24.74;31.71;100494.53;3422316;24;20026;-95
2022/09/12 17:39:39;;;;;;;5.60;0.90;;;;;;;24.65;32.29;100492.69;4789228;29;20139;-86
2022/09/12 17:42:06;;;;;;;2.65;0.70;;;;;;;24.59;32.32;100489.13;4787924;29;20046;-87
2022/09/12 17:45:24;;;;;;;4.45;1.17;;;;;;;25.62;31.62;100494.06;5030028;27;1564093;-76
2022/09/12 17:47:50;;;;;;;6.80;0.90;;;;;;;26.26;29.77;100500.34;5062613;28;20287;-76
2022/09/12 17:50:18;;;;;;;6.22;0.73;;;;;;;26.39;29.30;100496.91;5062954;28;20054;-76
2022/09/12 17:52:44;;;;;;;8.25;1.25;;;;;;;26.42;29.07;100496.34;5066033;28;20082;-76
2022/09/12 17:55:11;;;;;;;9.63;1.45;;;;;;;26.25;29.27;100487.75;5060754;28;20477;-76
2022/09/12 17:57:38;;;;;;;11.93;3.47;;;;;;;26.08;29.68;100495.56;5063313;28;20385;-76
2022/09/12 18:00:04;;;;;;;17.60;2.65;;;;;;;26.16;30.09;100492.22;5062475;28;20025;-75
2022/09/12 18:02:29;;;;;;;11.73;2.40;;;;;;;26.22;30.14;100496.53;5062336;28;20029;-76
2022/09/12 18:04:55;;;;;;;12.32;2.50;;;;;;;26.20;30.17;100493.28;5065809;28;20505;-76
2022/09/12 18:07:21;;;;;;;8.70;1.88;;;;;;;26.08;30.41;100496.41;5057848;28;20057;-75
2022/09/12 18:09:46;;;;;;;8.85;2.20;;;;;;;25.99;30.30;100498.97;5063308;28;20453;-75
2022/09/12 18:12:13;;;;;;;12.43;2.10;;;;;;;25.93;30.39;100493.78;5064299;28;20024;-76
2022/09/12 18:14:38;;;;;;;8.02;2.22;;;;;;;25.98;30.31;100494.59;5063076;28;20032;-75
2022/09/12 18:17:07;;;;;;;12.20;2.30;;;;;;;25.76;30.69;100496.94;5065232;28;20102;-76
2022/09/12 18:19:32;;;;;;;16.55;2.40;;;;;;;25.85;31.73;100506.16;5041945;28;20119;-76
2022/09/12 18:21:58;;;;;;;9.90;2.30;;;;;;;25.96;31.71;100505.00;5047183;28;20116;-76
2022/09/12 18:24:23;;;;;;;13.55;2.47;;;;;;;26.05;31.44;100495.06;5060680;28;20470;-76
2022/09/12 19:20:52;;;;;;;11.73;1.88;;;;;;;22.37;39.35;100494.56;5111145;27;20413;-75
2022/09/12 19:23:18;;;;;;;16.33;2.40;;;;;;;22.79;40.22;100490.97;5124971;28;20032;-75
2022/09/12 19:25:46;;;;;;;5.90;1.73;;;;;;;23.27;38.95;100486.22;5110227;28;20039;-76
2022/09/12 19:28:12;;;;;;;10.32;2.13;;;;;;;23.90;37.23;100482.44;5089495;28;20258;-87
2022/09/12 19:30:45;;;;;;;6.85;1.60;;;;;;;24.18;36.78;100479.13;5091576;28;20473;-86
2022/09/12 19:33:11;;;;;;;7.85;2.05;;;;;;;24.36;36.42;100479.63;5094578;28;20036;-86
2022/09/12 19:35:36;;;;;;;5.07;1.88;;;;;;;24.44;36.23;100481.78;5096142;28;20025;-86
2022/09/12 19:38:02;;;;;;;6.88;1.58;;;;;;;24.49;35.92;100481.78;5080560;28;20071;-86
2022/09/12 19:40:28;;;;;;;4.38;1.80;;;;;;;24.53;36.43;100484.78;5092783;28;20098;-85
2022/09/12 19:42:53;;;;;;;4.72;1.58;;;;;;;24.57;35.86;100474.13;5093871;28;20393;-85
2022/09/12 19:45:19;;;;;;;7.38;1.98;;;;;;;24.55;36.11;100471.69;5090091;28;20051;-85
2022/09/12 19:47:45;;;;;;;6.63;1.85;;;;;;;24.55;36.35;100468.94;5098704;28;20468;-86
2022/09/12 19:50:10;;;;;;;9.60;1.77;;;;;;;24.54;35.97;100470.88;5087789;28;20123;-86
2022/09/12 19:52:36;;;;;;;2.83;1.50;;;;;;;24.37;36.54;100471.16;5096545;28;20368;-85
2022/09/12 19:55:02;;;;;;;8.65;1.80;;;;;;;24.08;37.42;100470.16;5086686;28;20031;-86
2022/09/12 19:57:27;;;;;;;3.47;1.08;;;;;;;23.93;30.29;100465.53;5098100;28;20161;-85
2022/09/12 19:59:54;;;;;;;7.40;1.15;;;;;;;24.15;30.40;100468.75;5094126;28;20051;-85
2022/09/12 20:02:19;;;;;;;4.53;1.30;;;;;;;24.06;31.71;100467.69;5077584;28;20028;-85
2022/09/12 20:04:46;;;;;;;9.95;1.50;;;;;;;23.98;32.15;100463.59;5094681;28;20111;-84
2022/09/12 20:07:12;;;;;;;8.05;1.65;;;;;;;23.98;32.76;100463.59;5085293;28;20040;-85
2022/09/12 20:09:40;;;;;;;3.38;1.40;;;;;;;24.03;32.50;100459.25;5087469;28;20028;-84
2022/09/12 20:12:06;;;;;;;8.63;1.20;;;;;;;24.04;32.69;100461.66;5091596;28;20353;-85
2022/09/12 20:14:32;;;;;;;4.57;1.30;;;;;;;24.09;32.75;100461.66;5082014;28;20028;-85
2022/09/12 20:16:57;;;;;;;5.38;1.40;;;;;;;24.14;32.84;100461.66;5105301;28;20103;-84
2022/09/12 20:19:23;;;;;;;3.83;1.27;;;;;;;24.27;32.45;100459.47;5087060;28;20128;-84
2022/09/12 20:21:49;;;;;;;4.63;1.23;;;;;;;24.24;32.54;100460.81;5085511;28;20453;-84
2022/09/12 20:24:17;;;;;;;8.25;1.30;;;;;;;24.02;32.76;100463.84;5084624;28;20509;-85
2022/09/12 20:26:43;;;;;;;3.33;1.23;;;;;;;23.97;33.27;100469.31;5081914;28;20039;-84
2022/09/12 20:29:08;;;;;;;1.92;1.20;;;;;;;23.94;33.26;100467.97;5085221;28;20068;-85
2022/09/12 20:31:35;;;;;;;4.88;1.33;;;;;;;24.02;33.30;100471.25;5069985;28;20542;-85
2022/09/12 20:34:00;;;;;;;3.58;1.40;;;;;;;24.06;33.04;100464.97;5071062;28;20031;-85
2022/09/12 20:36:26;;;;;;;3.80;1.20;;;;;;;23.99;33.10;100464.41;5072085;28;20033;-84
2022/09/12 20:38:55;;;;;;;5.28;1.08;;;;;;;23.86;33.21;100454.06;5070546;28;20025;-84
2022/09/12 20:41:21;;;;;;;2.45;1.10;;;;;;;23.89;33.20;100457.06;5069007;28;20032;-84
2022/09/12 20:43:50;;;;;;;4.55;1.00;;;;;;;23.89;33.50;100465.25;5065634;28;20028;-85
2022/09/12 20:46:16;;;;;;;2.83;1.08;;;;;;;23.98;33.23;100455.41;5070332;28;20094;-85
2022/09/12 20:48:42;;;;;;;2.28;1.10;;;;;;;23.86;32.89;100454.88;5068930;28;20473;-84
2022/09/12 20:51:08;;;;;;;1.80;0.90;;;;;;;23.78;33.35;100456.25;5077008;28;20067;-84
2022/09/12 20:53:34;;;;;;;1.20;0.73;;;;;;;23.64;33.76;100452.41;5089968;28;20099;-84
2022/09/12 20:55:59;;;;;;;4.18;1.00;;;;;;;23.69;33.42;100452.41;5054087;28;20031;-85
2022/09/12 20:58:25;;;;;;;2.10;1.08;;;;;;;23.71;33.35;100447.50;5070899;28;20103;-85
2022/09/12 21:00:50;;;;;;;3.50;0.95;;;;;;;23.74;33.36;100444.22;5069119;28;20028;-84
2022/09/12 21:03:16;;;;;;;2.33;1.05;;;;;;;23.77;32.97;100449.13;5081446;28;20389;-84
2022/09/12 21:05:42;;;;;;;2.45;1.05;;;;;;;23.69;33.20;100446.13;5083118;28;20115;-85
2022/09/12 21:08:09;;;;;;;1.65;0.95;;;;;;;23.41;33.89;100446.41;5067364;28;20024;-85
2022/09/12 21:10:34;;;;;;;3.85;0.93;;;;;;;23.39;33.69;100443.16;5069303;28;20025;-85
2022/09/12 21:13:00;;;;;;;3.38;0.98;;;;;;;23.50;33.78;100440.41;5054415;28;20024;-85
2022/09/12 21:15:26;;;;;;;2.90;1.00;;;;;;;23.65;33.22;100442.34;5071741;28;20370;-85
2022/09/12 21:17:51;;;;;;;1.63;0.80;;;;;;;23.61;33.20;100433.84;5081025;28;20395;-85
2022/09/12 21:20:17;;;;;;;2.60;1.15;;;;;;;23.36;33.77;100437.41;5065152;28;20568;-85
2022/09/12 21:22:43;;;;;;;2.17;0.82;;;;;;;23.23;33.93;100431.41;5078622;28;20035;-84
2022/09/12 21:25:09;;;;;;;1.63;0.80;;;;;;;23.23;34.05;100436.03;5069498;28;20021;-84
2022/09/12 21:27:35;;;;;;;3.85;0.98;;;;;;;23.41;33.65;100432.78;5071401;28;20036;-84
2022/09/12 21:30:02;;;;;;;1.45;0.70;;;;;;;23.53;33.12;100428.97;5067677;28;20131;-84
2022/09/12 21:32:33;;;;;;;2.72;1.00;;;;;;;23.44;33.36;100421.31;5067526;28;20047;-84
2022/09/12 21:34:59;;;;;;;2.38;0.75;;;;;;;23.21;33.50;100424.56;5070847;28;20030;-84
2022/09/12 21:37:25;;;;;;;1.88;0.68;;;;;;;23.00;34.19;100426.44;5065390;28;20044;-84
2022/09/12 21:39:50;;;;;;;2.40;0.80;;;;;;;23.11;33.79;100425.41;5081541;28;20032;-84
2022/09/12 21:42:16;;;;;;;2.13;1.00;;;;;;;23.35;33.26;100425.69;5084573;28;20104;-84
2022/09/12 21:44:42;;;;;;;2.13;0.77;;;;;;;23.35;33.20;100412.06;5070752;28;20376;-84
2022/09/12 21:47:08;;;;;;;1.45;0.80;;;;;;;23.17;33.61;100416.13;5081616;28;20058;-84
2022/09/12 21:49:33;;;;;;;3.42;0.90;;;;;;;22.95;33.98;100413.59;5072933;28;20477;-84
2022/09/12 21:51:59;;;;;;;7.18;1.10;;;;;;;22.87;34.15;100411.44;5079962;28;20039;-84
2022/09/12 21:54:24;;;;;;;1.63;0.80;;;;;;;23.09;33.46;100413.13;5081992;28;20055;-85
2022/09/12 21:56:50;;;;;;;2.30;0.93;;;;;;;23.24;33.14;100405.75;5065834;28;20362;-84
2022/09/12 21:59:16;;;;;;;0.75;0.70;;;;;;;23.14;33.49;100411.22;5076590;28;20496;-84
2022/09/12 22:01:41;;;;;;;0.90;0.68;;;;;;;22.84;34.07;100409.22;5064843;28;20112;-84
2022/09/12 22:04:08;;;;;;;1.23;0.70;;;;;;;22.78;34.08;100408.38;5084982;28;20115;-84
2022/09/12 22:06:34;;;;;;;0.90;0.77;;;;;;;22.95;33.75;100408.16;5073592;28;20508;-84
2022/09/12 22:08:59;;;;;;;1.15;0.80;;;;;;;23.10;33.25;100403.88;5077207;28;20036;-84
2022/09/12 22:11:25;;;;;;;1.25;0.77;;;;;;;23.12;33.28;100405.22;5083191;28;20020;-85
2022/09/12 22:13:51;;;;;;;3.92;0.82;;;;;;;22.78;33.76;100408.38;5067723;28;20538;-84
2022/09/12 22:16:17;;;;;;;1.05;0.77;;;;;;;22.70;34.17;100403.47;5076548;28;20028;-84
2022/09/12 22:18:45;;;;;;;1.38;0.73;;;;;;;22.76;33.77;100405.13;5074917;28;20029;-84
2022/09/12 22:21:13;;;;;;;2.60;0.70;;;;;;;22.89;33.43;100401.06;5079313;28;20506;-84
2022/09/12 22:26:22;;;;;;;2.28;0.90;;;;;;;22.63;34.00;100400.19;5063452;28;20055;-84
2022/09/12 22:28:49;;;;;;;1.02;0.88;;;;;;;22.55;34.13;100390.63;5080440;28;20115;-84
2022/09/12 22:31:14;;;;;;;0.60;0.60;;;;;;;22.72;33.46;100397.78;5068699;28;20029;-84
2022/09/12 22:33:40;;;;;;;1.83;0.70;;;;;;;22.82;33.23;100397.78;5069727;28;20024;-84
2022/09/12 22:36:06;;;;;;;0.70;0.70;;;;;;;22.56;34.03;100395.00;5085214;28;20316;-84
2022/09/12 22:38:31;;;;;;;0.88;0.70;;;;;;;22.49;34.16;100383.50;5069918;28;20032;-84
2022/09/12 22:40:58;;;;;;;0.65;0.65;;;;;;;22.54;33.87;100380.81;5076016;28;20235;-84
2022/09/12 22:43:24;;;;;;;0.65;0.57;;;;;;;22.75;33.37;100380.84;5070646;28;20032;-84
2022/09/12 22:45:50;;;;;;;1.30;0.85;;;;;;;22.61;33.59;100381.41;5078195;28;20447;-84
2022/09/12 22:48:15;;;;;;;1.15;0.70;;;;;;;22.48;33.93;100379.16;5073642;28;20029;-84
2022/09/12 22:50:42;;;;;;;0.93;0.70;;;;;;;22.45;33.91;100368.81;5074654;28;20065;-85
2022/09/12 22:53:07;;;;;;;0.90;0.68;;;;;;;22.58;33.53;100370.22;5079758;28;20087;-84
2022/09/12 22:55:33;;;;;;;1.08;0.70;;;;;;;22.60;33.39;100370.75;5067555;28;20016;-85
2022/09/12 22:57:59;;;;;;;0.98;0.70;;;;;;;22.35;34.12;100366.03;5068291;28;20024;-84
2022/09/12 23:00:26;;;;;;;0.70;0.60;;;;;;;22.30;34.06;100364.09;5080090;28;20034;-84
2022/09/12 23:02:53;;;;;;;2.17;0.63;;;;;;;22.38;33.87;100365.50;5071459;28;20020;-84
2022/09/12 23:05:18;;;;;;;1.65;0.80;;;;;;;22.55;33.44;100365.31;5081744;28;20073;-84
2022/09/12 23:07:44;;;;;;;3.90;0.60;;;;;;;22.38;33.66;100355.44;5064644;28;20469;-84
2022/09/12 23:10:09;;;;;;;0.80;0.50;;;;;;;22.26;33.96;100366.50;5075126;28;20052;-84
2022/09/12 23:12:35;;;;;;;0.77;0.77;;;;;;;22.20;34.06;100364.06;5066551;28;20048;-84
2022/09/12 23:15:01;;;;;;;0.70;0.70;;;;;;;22.40;33.58;100363.34;5075895;28;20016;-84
2022/09/12 23:17:26;;;;;;;2.58;0.70;;;;;;;22.22;33.91;100359.97;5087507;28;20031;-84
2022/09/12 23:19:52;;;;;;;2.25;0.63;;;;;;;22.20;33.95;100364.06;5071507;28;20496;-84
2022/09/12 23:22:18;;;;;;;0.88;0.70;;;;;;;22.13;33.91;100350.69;5076099;28;20035;-84
2022/09/12 23:24:43;;;;;;;0.60;0.60;;;;;;;22.21;33.71;100352.88;5070224;28;20033;-84
2022/09/12 23:27:09;;;;;;;0.70;0.70;;;;;;;22.17;33.77;100359.16;5071691;28;20449;-84
2022/09/12 23:29:35;;;;;;;0.50;0.50;;;;;;;22.05;34.04;100345.75;5068280;28;20525;-84
2022/09/12 23:32:02;;;;;;;0.80;0.68;;;;;;;22.10;33.81;100351.22;5062701;28;20031;-84
2022/09/12 23:34:28;;;;;;;1.33;0.70;;;;;;;22.19;33.35;100352.34;5073551;28;20099;-84
2022/09/12 23:36:55;;;;;;;0.85;0.50;;;;;;;22.18;33.54;100345.28;5074219;28;20124;-84
2022/09/12 23:39:22;;;;;;;1.35;0.60;;;;;;;22.00;33.97;100340.28;5077120;28;20035;-84
2022/09/12 23:41:48;;;;;;;0.65;0.57;;;;;;;21.98;33.86;100331.56;5076808;28;20587;-84
2022/09/12 23:44:13;;;;;;;0.70;0.70;;;;;;;22.08;33.62;100345.22;5066428;28;20024;-84
2022/09/12 23:46:39;;;;;;;0.90;0.65;;;;;;;22.01;33.63;100334.59;5067230;28;20409;-84
2022/09/12 23:49:05;;;;;;;0.60;0.60;;;;;;;21.89;33.82;100323.91;5062737;28;20116;-84
2022/09/12 23:51:30;;;;;;;1.00;0.73;;;;;;;21.94;33.78;100329.38;5067296;28;20119;-84
2022/09/12 23:53:56;;;;;;;1.60;0.80;;;;;;;22.03;33.43;100329.69;5074864;28;20028;-84
2022/09/12 23:56:22;;;;;;;1.23;0.65;;;;;;;22.00;33.59;100332.94;5073794;28;20025;-84
2022/09/12 23:58:50;;;;;;;2.42;0.65;;;;;;;21.82;33.88;100336.94;5070845;28;20376;-85
